createdAt,value
2022-09-18T00:00:18.374Z,100370.34
2022-09-18T00:03:21.427Z,100367.78
2022-09-18T00:06:27.352Z,100369.47
2022-09-18T00:09:30.585Z,100365.00
2022-09-18T00:12:33.395Z,100364.16
2022-09-18T00:15:36.205Z,100357.97
2022-09-18T00:18:39.467Z,100356.16
2022-09-18T00:21:48.627Z,100354.34
2022-09-18T00:24:51.395Z,100354.34
2022-09-18T00:27:54.175Z,100356.25
2022-09-18T00:30:57.089Z,100357.13
2022-09-18T00:34:01.404Z,100353.59
2022-09-18T00:37:05.676Z,100360.72
2022-09-18T00:40:09.167Z,100366.03
2022-09-18T00:43:22.548Z,100366.03
2022-09-18T00:46:27.647Z,100359.00
2022-09-18T00:49:31.282Z,100360.72
2022-09-18T00:52:48.141Z,100356.34
2022-09-18T00:55:50.963Z,100365.09
2022-09-18T00:58:53.818Z,100361.56
2022-09-18T01:01:58.113Z,100358.91
2022-09-18T01:05:00.961Z,100360.72
2022-09-18T01:08:23.882Z,100360.72
2022-09-18T01:11:37.986Z,100359.00
2022-09-18T01:14:48.594Z,100364.34
2022-09-18T01:18:00.051Z,100367.94
2022-09-18T01:21:10.347Z,100373.25
2022-09-18T01:24:43.688Z,100372.41
2022-09-18T01:28:15.485Z,100383.91
2022-09-18T01:31:24.088Z,100381.34
2022-09-18T01:34:34.149Z,100388.41
2022-09-18T01:37:41.956Z,100389.25
2022-09-18T01:40:49.429Z,100391.91
2022-09-18T01:43:57.162Z,100399.91
2022-09-18T01:47:01.707Z,100391.91
2022-09-18T01:50:11.491Z,100391.91
2022-09-18T01:53:19.590Z,100391.06
2022-09-18T01:56:27.482Z,100399.06
2022-09-18T01:59:37.859Z,100388.41
2022-09-18T02:02:51.797Z,100398.19
2022-09-18T02:06:04.265Z,100395.53
2022-09-18T02:09:09.429Z,100392.09
2022-09-18T02:12:18.364Z,100395.63
2022-09-18T02:15:27.878Z,100396.47
2022-09-18T02:18:42.707Z,100395.53
2022-09-18T02:21:48.529Z,100398.19
2022-09-18T02:24:54.684Z,100396.47
2022-09-18T02:27:58.472Z,100401.78
2022-09-18T02:31:04.538Z,100385.81
2022-09-18T02:34:09.449Z,100398.19
2022-09-18T02:37:30.087Z,100391.13
2022-09-18T02:40:43.442Z,100390.28
2022-09-18T02:43:55.741Z,100384.09
2022-09-18T02:47:12.280Z,100377.91
2022-09-18T02:50:23.973Z,100382.38
2022-09-18T02:53:31.534Z,100385.91
2022-09-18T02:56:40.373Z,100384.09
2022-09-18T02:59:47.732Z,100390.34
2022-09-18T03:02:53.993Z,100385.91
2022-09-18T03:06:08.603Z,100394.75
2022-09-18T03:09:12.962Z,100394.75
2022-09-18T03:12:15.850Z,100397.41
2022-09-18T03:15:23.783Z,100392.09
2022-09-18T03:18:28.780Z,100389.44
2022-09-18T03:21:32.903Z,100388.66
2022-09-18T03:24:35.791Z,100386.88
2022-09-18T03:27:39.624Z,100392.19
2022-09-18T03:30:42.737Z,100394.84
2022-09-18T03:33:46.908Z,100388.66
2022-09-18T03:36:50.096Z,100400.25
2022-09-18T03:39:53.837Z,100401.09
2022-09-18T03:42:57.033Z,100395.78
2022-09-18T03:46:01.254Z,100401.00
2022-09-18T03:49:05.582Z,100411.75
2022-09-18T03:52:10.856Z,100412.63
2022-09-18T03:55:21.167Z,100417.94
2022-09-18T03:58:39.660Z,100412.63
2022-09-18T04:02:14.606Z,100417.09
2022-09-18T04:05:51.130Z,100418.88
2022-09-18T04:09:32.191Z,100423.34
2022-09-18T04:12:35.683Z,100423.34
2022-09-18T04:15:52.877Z,100422.50
2022-09-18T04:18:55.709Z,100431.44
2022-09-18T04:21:59.951Z,100430.50
2022-09-18T04:25:03.014Z,100434.94
2022-09-18T04:28:05.948Z,100439.31
2022-09-18T04:31:13.944Z,100441.16
2022-09-18T04:34:18.161Z,100442.84
2022-09-18T04:37:22.438Z,100441.16
2022-09-18T04:40:27.845Z,100448.19
2022-09-18T04:43:30.754Z,100448.28
2022-09-18T04:46:35.178Z,100457.13
2022-09-18T04:49:38.563Z,100461.59
2022-09-18T04:52:43.153Z,100464.25
2022-09-18T04:55:46.805Z,100468.72
2022-09-18T04:58:51.153Z,100466.03
2022-09-18T05:01:54.173Z,100468.72
2022-09-18T05:04:57.123Z,100473.16
2022-09-18T05:08:08.458Z,100475.00
2022-09-18T05:11:11.286Z,100471.38
2022-09-18T05:14:14.432Z,100474.03
2022-09-18T05:17:20.520Z,100477.56
2022-09-18T05:20:37.364Z,100475.78
2022-09-18T05:23:45.326Z,100470.44
2022-09-18T05:26:48.548Z,100468.72
2022-09-18T05:29:55.097Z,100478.50
2022-09-18T05:33:05.211Z,100476.69
2022-09-18T05:36:08.898Z,100480.31
2022-09-18T05:39:17.315Z,100488.31
2022-09-18T05:42:20.666Z,100490.97
2022-09-18T05:45:24.834Z,100490.97
2022-09-18T05:48:28.339Z,100497.13
2022-09-18T05:51:34.203Z,100511.31
2022-09-18T05:54:38.718Z,100506.88
2022-09-18T05:57:41.540Z,100514.84
2022-09-18T06:00:48.660Z,100503.25
2022-09-18T06:03:59.448Z,100502.41
2022-09-18T06:07:11.616Z,100510.41
2022-09-18T06:10:16.672Z,100509.53
2022-09-18T06:13:19.940Z,100513.97
2022-09-18T06:16:26.663Z,100499.81
2022-09-18T06:19:35.196Z,100503.34
2022-09-18T06:22:38.585Z,100501.63
2022-09-18T06:25:45.198Z,100512.28
2022-09-18T06:28:49.253Z,100517.59
2022-09-18T06:31:52.830Z,100509.69
2022-09-18T06:34:58.757Z,100519.31
2022-09-18T06:38:03.903Z,100513.97
2022-09-18T06:41:25.938Z,100517.50
2022-09-18T06:44:30.747Z,100526.38
2022-09-18T06:47:42.314Z,100521.97
2022-09-18T06:50:45.474Z,100524.63
2022-09-18T06:53:48.335Z,100523.72
2022-09-18T06:56:53.101Z,100524.63
2022-09-18T06:59:56.032Z,100526.44
2022-09-18T07:03:02.615Z,100524.63
2022-09-18T07:06:31.594Z,100528.16
2022-09-18T07:09:34.540Z,100532.63
2022-09-18T07:13:02.285Z,100528.25
2022-09-18T07:16:08.564Z,100524.63
2022-09-18T07:19:11.455Z,100524.63
2022-09-18T07:22:14.956Z,100525.50
2022-09-18T07:25:21.257Z,100526.38
2022-09-18T07:28:25.630Z,100529.88
2022-09-18T07:31:39.065Z,100527.28
2022-09-18T07:34:44.539Z,100533.50
2022-09-18T07:37:50.269Z,100542.34
2022-09-18T07:40:56.742Z,100542.34
2022-09-18T07:44:08.243Z,100544.16
2022-09-18T07:47:12.380Z,100539.75
2022-09-18T07:50:16.178Z,100540.63
2022-09-18T07:53:20.304Z,100535.28
2022-09-18T07:56:27.305Z,100535.28
2022-09-18T07:59:32.777Z,100537.03
2022-09-18T08:02:38.201Z,100533.50
2022-09-18T08:05:42.729Z,100538.72
2022-09-18T08:08:46.830Z,100537.03
2022-09-18T08:12:00.077Z,100548.50
2022-09-18T08:15:34.901Z,100539.69
2022-09-18T08:19:05.270Z,100549.47
2022-09-18T08:22:20.517Z,100541.47
2022-09-18T08:25:28.467Z,100542.34
2022-09-18T08:28:32.404Z,100537.03
2022-09-18T08:31:39.147Z,100540.63
2022-09-18T08:34:45.462Z,100539.69
2022-09-18T08:37:50.799Z,100539.69
2022-09-18T08:41:24.460Z,100534.38
2022-09-18T08:44:31.404Z,100541.47
2022-09-18T08:47:41.964Z,100536.06
2022-09-18T08:50:54.640Z,100544.91
2022-09-18T08:54:07.700Z,100536.06
2022-09-18T08:57:38.870Z,100538.72
2022-09-18T09:00:47.842Z,100533.41
2022-09-18T09:04:03.105Z,100540.47
2022-09-18T09:07:21.078Z,100533.41
2022-09-18T09:10:39.108Z,100547.69
2022-09-18T09:14:10.602Z,100541.38
2022-09-18T09:17:20.228Z,100541.38
2022-09-18T09:20:26.196Z,100537.84
2022-09-18T09:23:46.349Z,100537.84
2022-09-18T09:27:20.669Z,100537.81
2022-09-18T09:30:57.858Z,100527.16
2022-09-18T09:34:25.609Z,100532.53
2022-09-18T09:37:52.247Z,100519.16
2022-09-18T09:40:58.805Z,100523.63
2022-09-18T09:44:15.312Z,100526.28
2022-09-18T09:47:26.516Z,100524.47
2022-09-18T09:50:47.863Z,100522.75
2022-09-18T09:53:55.969Z,100517.41
2022-09-18T09:57:08.818Z,100506.78
2022-09-18T10:00:17.849Z,100522.75
2022-09-18T10:03:42.291Z,100521.81
2022-09-18T10:06:54.959Z,100527.16
2022-09-18T10:10:05.878Z,100528.84
2022-09-18T10:13:16.172Z,100526.19
2022-09-18T10:16:25.376Z,100526.19
2022-09-18T10:19:36.893Z,100531.50
2022-09-18T10:22:41.221Z,100530.69
2022-09-18T10:25:51.211Z,100526.19
2022-09-18T10:28:54.077Z,100528.00
2022-09-18T10:32:00.825Z,100528.84
2022-09-18T10:35:45.545Z,100524.47
2022-09-18T10:38:50.897Z,100535.13
2022-09-18T10:42:04.394Z,100535.13
2022-09-18T10:45:22.610Z,100534.28
2022-09-18T10:48:28.377Z,100530.69
2022-09-18T10:51:31.463Z,100526.19
2022-09-18T10:54:36.494Z,100528.84
2022-09-18T10:57:46.669Z,100523.53
2022-09-18T11:00:57.404Z,100526.19
2022-09-18T11:04:05.285Z,100521.81
2022-09-18T11:07:12.765Z,100531.50
2022-09-18T11:10:18.582Z,100529.72
2022-09-18T11:13:27.307Z,100538.66
2022-09-18T11:16:34.028Z,100547.50
2022-09-18T11:19:39.047Z,100540.47
2022-09-18T11:23:27.583Z,100553.69
2022-09-18T11:26:33.041Z,100541.34
2022-09-18T11:29:42.265Z,100538.66
2022-09-18T11:32:52.519Z,100539.50
2022-09-18T11:36:00.550Z,100544.78
2022-09-18T11:39:15.043Z,100540.38
2022-09-18T11:42:19.885Z,100548.38
2022-09-18T11:45:45.984Z,100530.50
2022-09-18T11:48:56.290Z,100524.31
2022-09-18T11:52:04.224Z,100519.94
2022-09-18T11:55:25.886Z,100507.50
2022-09-18T11:58:33.886Z,100517.28
2022-09-18T12:01:44.246Z,100526.97
2022-09-18T12:04:52.037Z,100519.94
2022-09-18T12:08:01.979Z,100511.94
2022-09-18T12:11:15.234Z,100511.94
2022-09-18T12:14:22.728Z,100503.09
2022-09-18T12:17:52.488Z,100495.97
2022-09-18T12:20:59.219Z,100502.16
2022-09-18T12:24:02.256Z,100492.34
2022-09-18T12:27:20.202Z,100476.34
2022-09-18T12:30:29.198Z,100465.72
2022-09-18T12:33:39.242Z,100457.72
2022-09-18T12:36:55.539Z,100455.91
2022-09-18T12:40:25.407Z,100465.72
2022-09-18T12:43:47.629Z,100457.81
2022-09-18T12:47:02.851Z,100461.34
2022-09-18T12:50:37.650Z,100466.66
2022-09-18T12:53:50.848Z,100470.19
2022-09-18T12:57:10.457Z,100472.91
2022-09-18T13:00:16.104Z,100472.91
2022-09-18T13:03:25.766Z,100481.69
2022-09-18T13:06:38.334Z,100476.34
2022-09-18T13:09:47.644Z,100476.34
2022-09-18T13:12:57.132Z,100479.03
2022-09-18T13:16:05.060Z,100485.22
2022-09-18T13:19:14.947Z,100471.91
2022-09-18T13:22:21.153Z,100470.09
2022-09-18T13:25:30.909Z,100464.88
2022-09-18T13:28:34.366Z,100456.00
2022-09-18T13:31:37.723Z,100450.69
2022-09-18T13:34:49.236Z,100465.72
2022-09-18T13:38:07.615Z,100451.56
2022-09-18T13:41:12.406Z,100455.06
2022-09-18T13:44:20.770Z,100468.38
2022-09-18T13:47:24.595Z,100476.34
2022-09-18T13:50:28.391Z,100481.69
2022-09-18T13:53:41.740Z,100487.00
2022-09-18T13:57:19.867Z,100483.41
2022-09-18T14:00:41.722Z,100476.31
2022-09-18T14:03:44.743Z,100493.22
2022-09-18T14:06:47.634Z,100492.34
2022-09-18T14:09:54.418Z,100497.66
2022-09-18T14:13:17.604Z,100497.66
2022-09-18T14:16:33.339Z,100485.31
2022-09-18T14:19:37.942Z,100487.00
2022-09-18T14:22:41.164Z,100485.31
2022-09-18T14:25:47.220Z,100482.56
2022-09-18T14:28:50.479Z,100486.19
2022-09-18T14:31:55.369Z,100471.03
2022-09-18T14:35:24.331Z,100466.56
2022-09-18T14:38:35.046Z,100466.56
2022-09-18T14:41:39.783Z,100465.72
2022-09-18T14:44:48.914Z,100458.59
2022-09-18T14:47:51.748Z,100467.44
2022-09-18T14:51:06.979Z,100467.44
2022-09-18T14:54:19.934Z,100464.00
2022-09-18T14:57:27.933Z,100458.69
2022-09-18T15:00:34.966Z,100456.00
2022-09-18T15:03:40.828Z,100460.38
2022-09-18T15:06:46.665Z,100453.34
2022-09-18T15:09:52.925Z,100454.22
2022-09-18T15:12:59.130Z,100455.06
2022-09-18T15:16:04.274Z,100449.72
2022-09-18T15:19:18.061Z,100452.38
2022-09-18T15:22:22.823Z,100449.72
2022-09-18T15:25:30.677Z,100449.72
2022-09-18T15:28:37.692Z,100439.94
2022-09-18T15:31:40.701Z,100445.25
2022-09-18T15:34:48.316Z,100441.72
2022-09-18T15:37:53.458Z,100434.69
2022-09-18T15:40:56.500Z,100437.38
2022-09-18T15:44:01.262Z,100438.22
2022-09-18T15:47:30.623Z,100432.03
2022-09-18T15:50:41.790Z,100432.03
2022-09-18T15:54:03.811Z,100423.09
2022-09-18T15:57:06.794Z,100434.69
2022-09-18T16:00:18.888Z,100436.41
2022-09-18T16:03:21.846Z,100437.38
2022-09-18T16:06:28.512Z,100445.34
2022-09-18T16:09:43.140Z,100440.91
2022-09-18T16:12:45.965Z,100431.19
2022-09-18T16:16:21.984Z,100431.19
2022-09-18T16:19:24.927Z,100440.97
2022-09-18T16:22:31.342Z,100435.63
2022-09-18T16:25:37.427Z,100441.81
2022-09-18T16:28:43.913Z,100440.13
2022-09-18T16:31:48.455Z,100443.63
2022-09-18T16:34:51.306Z,100445.44
2022-09-18T16:37:55.167Z,100440.97
2022-09-18T16:40:58.256Z,100446.28
2022-09-18T16:44:01.222Z,100450.78
2022-09-18T16:47:09.620Z,100462.25
2022-09-18T16:50:12.454Z,100464.88
2022-09-18T16:53:15.452Z,100464.00
2022-09-18T16:56:27.161Z,100464.94
2022-09-18T16:59:31.901Z,100467.59
2022-09-18T17:02:36.306Z,100456.09
2022-09-18T17:05:39.126Z,100455.25
2022-09-18T17:08:46.240Z,100462.34
2022-09-18T17:11:49.672Z,100464.16
2022-09-18T17:14:52.755Z,100469.47
2022-09-18T17:17:56.918Z,100471.22
2022-09-18T17:21:01.994Z,100472.09
2022-09-18T17:24:05.015Z,100471.22
2022-09-18T17:27:07.858Z,100474.75
2022-09-18T17:30:12.695Z,100476.53
2022-09-18T17:33:20.341Z,100476.53
2022-09-18T17:36:23.515Z,100476.53
2022-09-18T17:39:26.352Z,100471.22
2022-09-18T17:42:29.139Z,100472.09
2022-09-18T17:45:33.094Z,100474.81
2022-09-18T17:48:37.651Z,100481.00
2022-09-18T17:51:40.444Z,100481.09
2022-09-18T17:54:43.386Z,100489.09
2022-09-18T17:57:46.356Z,100489.91
2022-09-18T18:00:49.251Z,100489.09
2022-09-18T18:03:54.425Z,100486.41
2022-09-18T18:06:57.559Z,100492.59
2022-09-18T18:10:00.315Z,100492.69
2022-09-18T18:13:03.188Z,100496.31
2022-09-18T18:16:07.689Z,100496.44
2022-09-18T18:19:12.809Z,100503.66
2022-09-18T18:22:15.610Z,100505.56
2022-09-18T18:25:18.406Z,100506.47
2022-09-18T18:28:23.286Z,100502.13
2022-09-18T18:31:26.995Z,100509.31
2022-09-18T18:34:31.487Z,100504.09
2022-09-18T18:37:34.341Z,100510.25
2022-09-18T18:40:38.857Z,100516.53
2022-09-18T18:43:42.234Z,100518.34
2022-09-18T18:46:45.077Z,100524.53
2022-09-18T18:49:49.257Z,100523.56
2022-09-18T18:52:53.648Z,100516.44
2022-09-18T18:56:01.428Z,100520.84
2022-09-18T18:59:06.828Z,100519.97
2022-09-18T19:02:10.462Z,100518.19
2022-09-18T19:05:16.342Z,100511.03
2022-09-18T19:08:19.172Z,100507.53
2022-09-18T19:11:21.959Z,100516.34
2022-09-18T19:14:26.396Z,100514.66
2022-09-18T19:17:29.210Z,100517.22
2022-09-18T19:20:34.589Z,100514.56
2022-09-18T19:23:37.376Z,100523.41
2022-09-18T19:26:41.616Z,100519.78
2022-09-18T19:29:44.393Z,100526.00
2022-09-18T19:32:47.199Z,100528.66
2022-09-18T19:35:51.396Z,100527.72
2022-09-18T19:38:55.348Z,100532.19
2022-09-18T19:42:02.034Z,100533.88
2022-09-18T19:45:06.717Z,100531.22
2022-09-18T19:48:16.556Z,100530.28
2022-09-18T19:51:20.946Z,100524.97
2022-09-18T19:54:23.741Z,100532.97
2022-09-18T19:57:28.470Z,100525.91
2022-09-18T20:00:31.975Z,100538.28
2022-09-18T20:03:34.962Z,100536.50
2022-09-18T20:06:40.490Z,100540.03
2022-09-18T20:09:43.501Z,100542.69
2022-09-18T20:12:47.735Z,100546.19
2022-09-18T20:15:59.802Z,100537.34
2022-09-18T20:19:02.749Z,100544.38
2022-09-18T20:22:07.351Z,100537.28
2022-09-18T20:25:11.290Z,100547.06
2022-09-18T20:28:14.051Z,100538.19
2022-09-18T20:31:17.748Z,100537.34
2022-09-18T20:34:24.660Z,100540.94
2022-09-18T20:37:32.736Z,100537.41
2022-09-18T20:40:35.635Z,100533.88
2022-09-18T20:43:40.920Z,100539.22
2022-09-18T20:46:43.901Z,100537.50
2022-09-18T20:49:48.769Z,100536.63
2022-09-18T20:52:52.973Z,100542.84
2022-09-18T20:55:59.463Z,100541.03
2022-09-18T20:59:04.853Z,100542.84
2022-09-18T21:02:08.134Z,100536.63
2022-09-18T21:05:14.640Z,100544.53
2022-09-18T21:08:20.087Z,100538.38
2022-09-18T21:11:25.516Z,100540.16
2022-09-18T21:14:29.084Z,100545.41
2022-09-18T21:17:32.207Z,100540.16
2022-09-18T21:20:35.432Z,100540.16
2022-09-18T21:23:56.381Z,100538.38
2022-09-18T21:26:59.433Z,100535.78
2022-09-18T21:30:02.201Z,100534.06
2022-09-18T21:33:05.074Z,100541.09
2022-09-18T21:36:08.569Z,100538.44
2022-09-18T21:39:14.267Z,100532.28
2022-09-18T21:42:17.658Z,100534.06
2022-09-18T21:45:20.697Z,100527.78
2022-09-18T21:48:23.909Z,100530.44
2022-09-18T21:51:26.695Z,100535.78
2022-09-18T21:54:31.859Z,100532.28
2022-09-18T21:57:34.641Z,100529.59
2022-09-18T22:00:37.513Z,100534.06
2022-09-18T22:03:40.348Z,100539.41
2022-09-18T22:06:44.850Z,100534.06
2022-09-18T22:09:48.997Z,100546.50
2022-09-18T22:12:53.024Z,100542.97
2022-09-18T22:15:56.855Z,100542.97
2022-09-18T22:19:00.250Z,100542.97
2022-09-18T22:22:03.166Z,100541.28
2022-09-18T22:25:07.836Z,100543.94
2022-09-18T22:28:10.662Z,100549.19
2022-09-18T22:31:13.556Z,100551.94
2022-09-18T22:34:18.187Z,100550.13
2022-09-18T22:37:21.280Z,100546.59
2022-09-18T22:40:25.612Z,100551.94
2022-09-18T22:43:28.418Z,100555.53
2022-09-18T22:46:31.508Z,100556.38
2022-09-18T22:49:34.489Z,100558.19
2022-09-18T22:52:37.990Z,100556.47
2022-09-18T22:55:42.116Z,100565.34
2022-09-18T22:58:45.353Z,100562.72
2022-09-18T23:01:51.235Z,100560.06
2022-09-18T23:04:54.093Z,100560.06
2022-09-18T23:07:56.999Z,100567.13
2022-09-18T23:11:05.048Z,100568.91
2022-09-18T23:14:09.794Z,100566.25
2022-09-18T23:17:12.615Z,100577.78
2022-09-18T23:20:16.394Z,100573.38
2022-09-18T23:23:19.502Z,100569.88
2022-09-18T23:26:25.318Z,100576.03
2022-09-18T23:29:31.770Z,100579.66
2022-09-18T23:32:34.555Z,100582.31
2022-09-18T23:35:37.319Z,100574.41
2022-09-18T23:38:40.424Z,100580.59
2022-09-18T23:41:45.096Z,100572.59
2022-09-18T23:44:47.934Z,100569.06
2022-09-18T23:47:51.077Z,100563.84
2022-09-18T23:50:54.805Z,100576.22
2022-09-18T23:53:59.898Z,100570.91
2022-09-18T23:57:04.196Z,100580.59
